sensor_id;sensor_type;location;lat;lon;timestamp;P1;durP1;ratioP1;P2;durP2;ratioP2
20084;SDS011;10202;48.474;9.138;2024-03-07T00:00:07;37.95;;;19.05;;
20084;SDS011;10202;48.474;9.138;2024-03-07T00:02:49;37.65;;;17.73;;
20084;SDS011;10202;48.474;9.138;2024-03-07T00:05:19;40.20;;;20.10;;
20084;SDS011;10202;48.474;9.138;2024-03-07T00:07:47;33.78;;;17.52;;
20084;SDS011;10202;48.474;9.138;2024-03-07T00:10:12;41.90;;;19.85;;
20084;SDS011;10202;48.474;9.138;2024-03-07T00:12:40;36.53;;;18.23;;
20084;SDS011;10202;48.474;9.138;2024-03-07T00:15:06;33.97;;;18.35;;
20084;SDS011;10202;48.474;9.138;2024-03-07T00:17:34;40.45;;;19.20;;
20084;SDS011;10202;48.474;9.138;2024-03-07T00:20:01;36.78;;;18.25;;
20084;SDS011;10202;48.474;9.138;2024-03-07T00:22:28;42.78;;;18.48;;
20084;SDS011;10202;48.474;9.138;2024-03-07T00:24:55;39.75;;;19.98;;
20084;SDS011;10202;48.474;9.138;2024-03-07T00:27:21;40.50;;;19.02;;
20084;SDS011;10202;48.474;9.138;2024-03-07T00:29:48;36.42;;;18.75;;
20084;SDS011;10202;48.474;9.138;2024-03-07T00:32:22;34.03;;;18.13;;
20084;SDS011;10202;48.474;9.138;2024-03-07T00:34:49;37.50;;;18.25;;
20084;SDS011;10202;48.474;9.138;2024-03-07T00:37:15;39.97;;;19.35;;
20084;SDS011;10202;48.474;9.138;2024-03-07T00:39:44;38.33;;;18.60;;
20084;SDS011;10202;48.474;9.138;2024-03-07T00:42:12;36.08;;;18.10;;
20084;SDS011;10202;48.474;9.138;2024-03-07T00:44:42;38.08;;;18.85;;
20084;SDS011;10202;48.474;9.138;2024-03-07T00:47:08;36.90;;;18.73;;
20084;SDS011;10202;48.474;9.138;2024-03-07T00:49:36;36.10;;;18.42;;
20084;SDS011;10202;48.474;9.138;2024-03-07T00:52:04;37.42;;;18.83;;
20084;SDS011;10202;48.474;9.138;2024-03-07T00:54:32;38.65;;;18.85;;
20084;SDS011;10202;48.474;9.138;2024-03-07T00:56:57;33.55;;;17.10;;
20084;SDS011;10202;48.474;9.138;2024-03-07T00:59:25;33.95;;;17.40;;
20084;SDS011;10202;48.474;9.138;2024-03-07T01:01:55;33.17;;;17.50;;
20084;SDS011;10202;48.474;9.138;2024-03-07T01:04:23;40.97;;;18.15;;
20084;SDS011;10202;48.474;9.138;2024-03-07T01:06:50;35.85;;;16.60;;
20084;SDS011;10202;48.474;9.138;2024-03-07T01:09:15;34.40;;;17.10;;
20084;SDS011;10202;48.474;9.138;2024-03-07T01:11:44;34.35;;;16.92;;
20084;SDS011;10202;48.474;9.138;2024-03-07T01:14:13;33.60;;;16.55;;
20084;SDS011;10202;48.474;9.138;2024-03-07T01:16:41;34.65;;;16.90;;
20084;SDS011;10202;48.474;9.138;2024-03-07T01:19:07;32.28;;;16.48;;
20084;SDS011;10202;48.474;9.138;2024-03-07T01:21:33;32.00;;;16.88;;
20084;SDS011;10202;48.474;9.138;2024-03-07T01:24:00;32.63;;;16.10;;
20084;SDS011;10202;48.474;9.138;2024-03-07T01:26:29;36.50;;;16.70;;
20084;SDS011;10202;48.474;9.138;2024-03-07T01:28:58;36.85;;;17.92;;
20084;SDS011;10202;48.474;9.138;2024-03-07T01:31:24;36.80;;;16.90;;
20084;SDS011;10202;48.474;9.138;2024-03-07T01:33:50;35.65;;;17.17;;
20084;SDS011;10202;48.474;9.138;2024-03-07T01:36:16;36.28;;;17.90;;
20084;SDS011;10202;48.474;9.138;2024-03-07T01:38:44;32.55;;;16.83;;
20084;SDS011;10202;48.474;9.138;2024-03-07T01:41:13;35.03;;;16.83;;
20084;SDS011;10202;48.474;9.138;2024-03-07T01:43:39;40.47;;;17.45;;
20084;SDS011;10202;48.474;9.138;2024-03-07T01:46:06;33.60;;;17.23;;
20084;SDS011;10202;48.474;9.138;2024-03-07T01:48:31;36.05;;;17.50;;
20084;SDS011;10202;48.474;9.138;2024-03-07T01:51:01;39.47;;;16.65;;
20084;SDS011;10202;48.474;9.138;2024-03-07T01:53:30;35.38;;;17.13;;
20084;SDS011;10202;48.474;9.138;2024-03-07T01:55:57;32.05;;;16.98;;
20084;SDS011;10202;48.474;9.138;2024-03-07T01:58:24;32.53;;;17.10;;
20084;SDS011;10202;48.474;9.138;2024-03-07T02:00:52;37.50;;;17.60;;
20084;SDS011;10202;48.474;9.138;2024-03-07T02:03:18;35.45;;;17.25;;
20084;SDS011;10202;48.474;9.138;2024-03-07T02:05:44;34.33;;;16.63;;
20084;SDS011;10202;48.474;9.138;2024-03-07T02:08:10;33.63;;;16.42;;
20084;SDS011;10202;48.474;9.138;2024-03-07T02:10:38;32.97;;;17.15;;
20084;SDS011;10202;48.474;9.138;2024-03-07T02:13:06;35.50;;;17.55;;
20084;SDS011;10202;48.474;9.138;2024-03-07T02:15:34;40.67;;;18.63;;
20084;SDS011;10202;48.474;9.138;2024-03-07T02:18:00;33.17;;;16.48;;
20084;SDS011;10202;48.474;9.138;2024-03-07T02:20:25;38.45;;;18.30;;
20084;SDS011;10202;48.474;9.138;2024-03-07T02:22:54;37.97;;;17.63;;
20084;SDS011;10202;48.474;9.138;2024-03-07T02:25:22;36.03;;;17.60;;
20084;SDS011;10202;48.474;9.138;2024-03-07T02:27:47;36.53;;;17.67;;
20084;SDS011;10202;48.474;9.138;2024-03-07T02:30:13;40.58;;;18.00;;
20084;SDS011;10202;48.474;9.138;2024-03-07T02:32:39;35.88;;;17.73;;
20084;SDS011;10202;48.474;9.138;2024-03-07T02:35:05;35.35;;;18.83;;
20084;SDS011;10202;48.474;9.138;2024-03-07T02:37:32;37.83;;;18.40;;
20084;SDS011;10202;48.474;9.138;2024-03-07T02:39:59;38.13;;;19.08;;
20084;SDS011;10202;48.474;9.138;2024-03-07T02:42:28;35.70;;;18.38;;
20084;SDS011;10202;48.474;9.138;2024-03-07T02:44:55;35.83;;;18.27;;
20084;SDS011;10202;48.474;9.138;2024-03-07T02:47:23;38.75;;;20.13;;
20084;SDS011;10202;48.474;9.138;2024-03-07T02:49:48;37.92;;;19.02;;
20084;SDS011;10202;48.474;9.138;2024-03-07T02:52:14;40.97;;;20.50;;
20084;SDS011;10202;48.474;9.138;2024-03-07T02:54:40;37.95;;;19.75;;
20084;SDS011;10202;48.474;9.138;2024-03-07T02:57:05;35.97;;;18.92;;
20084;SDS011;10202;48.474;9.138;2024-03-07T02:59:33;35.15;;;18.80;;
20084;SDS011;10202;48.474;9.138;2024-03-07T03:01:59;44.20;;;20.40;;
20084;SDS011;10202;48.474;9.138;2024-03-07T03:04:25;39.20;;;20.77;;
20084;SDS011;10202;48.474;9.138;2024-03-07T03:06:54;40.92;;;20.67;;
20084;SDS011;10202;48.474;9.138;2024-03-07T03:09:22;41.30;;;20.93;;
20084;SDS011;10202;48.474;9.138;2024-03-07T03:11:50;42.57;;;20.83;;
20084;SDS011;10202;48.474;9.138;2024-03-07T03:14:17;41.93;;;21.30;;
20084;SDS011;10202;48.474;9.138;2024-03-07T03:16:43;47.38;;;21.02;;
20084;SDS011;10202;48.474;9.138;2024-03-07T03:19:18;40.93;;;20.80;;
20084;SDS011;10202;48.474;9.138;2024-03-07T03:21:52;39.47;;;21.37;;
20084;SDS011;10202;48.474;9.138;2024-03-07T03:24:17;41.17;;;21.30;;
20084;SDS011;10202;48.474;9.138;2024-03-07T03:26:45;42.05;;;21.13;;
20084;SDS011;10202;48.474;9.138;2024-03-07T03:29:11;43.10;;;20.93;;
20084;SDS011;10202;48.474;9.138;2024-03-07T03:31:38;43.40;;;20.67;;
20084;SDS011;10202;48.474;9.138;2024-03-07T03:34:06;48.53;;;21.73;;
20084;SDS011;10202;48.474;9.138;2024-03-07T03:36:37;47.67;;;23.97;;
20084;SDS011;10202;48.474;9.138;2024-03-07T03:39:03;43.33;;;21.33;;
20084;SDS011;10202;48.474;9.138;2024-03-07T03:41:31;42.83;;;21.53;;
20084;SDS011;10202;48.474;9.138;2024-03-07T03:43:56;43.83;;;21.63;;
20084;SDS011;10202;48.474;9.138;2024-03-07T03:46:23;50.90;;;22.30;;
20084;SDS011;10202;48.474;9.138;2024-03-07T03:48:51;66.67;;;28.90;;
20084;SDS011;10202;48.474;9.138;2024-03-07T03:51:17;46.05;;;22.85;;
20084;SDS011;10202;48.474;9.138;2024-03-07T03:53:44;45.83;;;22.27;;
20084;SDS011;10202;48.474;9.138;2024-03-07T03:56:16;46.50;;;21.83;;
20084;SDS011;10202;48.474;9.138;2024-03-07T03:58:44;44.87;;;21.37;;
20084;SDS011;10202;48.474;9.138;2024-03-07T04:01:12;47.63;;;22.47;;
20084;SDS011;10202;48.474;9.138;2024-03-07T04:03:39;47.27;;;22.80;;
20084;SDS011;10202;48.474;9.138;2024-03-07T04:06:05;45.00;;;22.93;;
20084;SDS011;10202;48.474;9.138;2024-03-07T04:08:32;44.73;;;22.33;;
20084;SDS011;10202;48.474;9.138;2024-03-07T04:11:00;45.53;;;22.30;;
20084;SDS011;10202;48.474;9.138;2024-03-07T04:13:25;42.53;;;21.87;;
20084;SDS011;10202;48.474;9.138;2024-03-07T04:15:53;45.13;;;22.83;;
20084;SDS011;10202;48.474;9.138;2024-03-07T04:18:21;44.47;;;21.70;;
20084;SDS011;10202;48.474;9.138;2024-03-07T04:20:54;44.00;;;22.50;;
20084;SDS011;10202;48.474;9.138;2024-03-07T04:23:19;44.33;;;22.70;;
20084;SDS011;10202;48.474;9.138;2024-03-07T04:25:47;48.43;;;23.57;;
20084;SDS011;10202;48.474;9.138;2024-03-07T04:28:12;44.83;;;22.00;;
20084;SDS011;10202;48.474;9.138;2024-03-07T04:30:40;49.73;;;23.17;;
20084;SDS011;10202;48.474;9.138;2024-03-07T04:33:07;45.07;;;22.77;;
20084;SDS011;10202;48.474;9.138;2024-03-07T04:35:33;44.60;;;23.00;;
20084;SDS011;10202;48.474;9.138;2024-03-07T04:38:03;45.10;;;23.17;;
20084;SDS011;10202;48.474;9.138;2024-03-07T04:40:34;46.83;;;23.77;;
20084;SDS011;10202;48.474;9.138;2024-03-07T04:43:06;47.10;;;22.83;;
20084;SDS011;10202;48.474;9.138;2024-03-07T04:45:35;43.83;;;22.97;;
20084;SDS011;10202;48.474;9.138;2024-03-07T04:48:05;51.13;;;23.50;;
20084;SDS011;10202;48.474;9.138;2024-03-07T04:50:33;48.13;;;23.80;;
20084;SDS011;10202;48.474;9.138;2024-03-07T04:53:01;45.97;;;22.97;;
20084;SDS011;10202;48.474;9.138;2024-03-07T04:55:29;47.13;;;23.87;;
20084;SDS011;10202;48.474;9.138;2024-03-07T04:58:00;47.37;;;23.53;;
20084;SDS011;10202;48.474;9.138;2024-03-07T05:00:25;48.17;;;23.67;;
20084;SDS011;10202;48.474;9.138;2024-03-07T05:02:53;44.27;;;22.23;;
20084;SDS011;10202;48.474;9.138;2024-03-07T05:05:19;50.60;;;25.50;;
20084;SDS011;10202;48.474;9.138;2024-03-07T05:07:51;48.77;;;23.50;;
20084;SDS011;10202;48.474;9.138;2024-03-07T05:10:20;50.57;;;23.63;;
20084;SDS011;10202;48.474;9.138;2024-03-07T05:12:49;47.43;;;24.47;;
20084;SDS011;10202;48.474;9.138;2024-03-07T05:15:15;46.20;;;22.73;;
20084;SDS011;10202;48.474;9.138;2024-03-07T05:17:42;47.40;;;23.57;;
20084;SDS011;10202;48.474;9.138;2024-03-07T05:20:10;42.83;;;22.53;;
20084;SDS011;10202;48.474;9.138;2024-03-07T05:22:37;45.13;;;23.53;;
20084;SDS011;10202;48.474;9.138;2024-03-07T05:25:09;43.97;;;23.07;;
20084;SDS011;10202;48.474;9.138;2024-03-07T05:27:37;45.00;;;23.03;;
20084;SDS011;10202;48.474;9.138;2024-03-07T05:30:03;47.53;;;24.17;;
20084;SDS011;10202;48.474;9.138;2024-03-07T05:32:37;46.07;;;23.13;;
20084;SDS011;10202;48.474;9.138;2024-03-07T05:35:05;46.17;;;23.40;;
20084;SDS011;10202;48.474;9.138;2024-03-07T05:37:36;44.67;;;22.90;;
20084;SDS011;10202;48.474;9.138;2024-03-07T05:40:02;45.70;;;23.37;;
20084;SDS011;10202;48.474;9.138;2024-03-07T05:42:29;44.67;;;22.77;;
20084;SDS011;10202;48.474;9.138;2024-03-07T05:44:57;48.57;;;23.93;;
20084;SDS011;10202;48.474;9.138;2024-03-07T05:47:22;50.53;;;23.67;;
20084;SDS011;10202;48.474;9.138;2024-03-07T05:49:48;50.00;;;24.00;;
20084;SDS011;10202;48.474;9.138;2024-03-07T05:52:18;45.27;;;22.70;;
20084;SDS011;10202;48.474;9.138;2024-03-07T05:54:46;51.70;;;25.03;;
20084;SDS011;10202;48.474;9.138;2024-03-07T05:57:14;42.90;;;23.63;;
20084;SDS011;10202;48.474;9.138;2024-03-07T05:59:40;46.00;;;22.13;;
20084;SDS011;10202;48.474;9.138;2024-03-07T06:02:06;49.30;;;23.90;;
20084;SDS011;10202;48.474;9.138;2024-03-07T06:04:33;50.87;;;22.73;;
20084;SDS011;10202;48.474;9.138;2024-03-07T06:07:01;43.40;;;22.63;;
20084;SDS011;10202;48.474;9.138;2024-03-07T06:09:30;51.40;;;25.20;;
20084;SDS011;10202;48.474;9.138;2024-03-07T06:11:59;44.70;;;22.40;;
20084;SDS011;10202;48.474;9.138;2024-03-07T06:14:27;48.77;;;22.57;;
20084;SDS011;10202;48.474;9.138;2024-03-07T06:16:53;44.40;;;22.77;;
20084;SDS011;10202;48.474;9.138;2024-03-07T06:19:18;51.67;;;23.47;;
20084;SDS011;10202;48.474;9.138;2024-03-07T06:21:44;45.80;;;22.97;;
20084;SDS011;10202;48.474;9.138;2024-03-07T06:24:11;45.10;;;22.60;;
20084;SDS011;10202;48.474;9.138;2024-03-07T06:26:40;43.73;;;22.40;;
20084;SDS011;10202;48.474;9.138;2024-03-07T06:29:11;45.53;;;23.40;;
20084;SDS011;10202;48.474;9.138;2024-03-07T06:31:38;55.47;;;23.87;;
20084;SDS011;10202;48.474;9.138;2024-03-07T06:34:08;47.10;;;22.63;;
20084;SDS011;10202;48.474;9.138;2024-03-07T06:36:35;47.50;;;24.07;;
20084;SDS011;10202;48.474;9.138;2024-03-07T06:39:06;47.83;;;22.57;;
20084;SDS011;10202;48.474;9.138;2024-03-07T06:41:32;46.40;;;22.47;;
20084;SDS011;10202;48.474;9.138;2024-03-07T06:43:58;47.03;;;23.17;;
20084;SDS011;10202;48.474;9.138;2024-03-07T06:46:24;50.97;;;23.43;;
20084;SDS011;10202;48.474;9.138;2024-03-07T06:48:50;47.20;;;22.80;;
20084;SDS011;10202;48.474;9.138;2024-03-07T06:51:16;47.13;;;23.73;;
20084;SDS011;10202;48.474;9.138;2024-03-07T06:53:43;46.27;;;22.23;;
20084;SDS011;10202;48.474;9.138;2024-03-07T06:56:10;50.10;;;23.37;;
20084;SDS011;10202;48.474;9.138;2024-03-07T06:58:37;46.10;;;20.60;;
20084;SDS011;10202;48.474;9.138;2024-03-07T07:01:03;44.30;;;21.50;;
20084;SDS011;10202;48.474;9.138;2024-03-07T07:03:34;49.17;;;21.63;;
20084;SDS011;10202;48.474;9.138;2024-03-07T07:06:01;47.87;;;23.73;;
20084;SDS011;10202;48.474;9.138;2024-03-07T07:08:27;44.50;;;22.27;;
20084;SDS011;10202;48.474;9.138;2024-03-07T07:10:55;46.70;;;21.60;;
20084;SDS011;10202;48.474;9.138;2024-03-07T07:13:21;47.37;;;22.37;;
20084;SDS011;10202;48.474;9.138;2024-03-07T07:15:48;41.40;;;20.40;;
20084;SDS011;10202;48.474;9.138;2024-03-07T07:18:14;46.93;;;21.83;;
20084;SDS011;10202;48.474;9.138;2024-03-07T07:20:40;44.20;;;21.27;;
20084;SDS011;10202;48.474;9.138;2024-03-07T07:23:06;46.27;;;21.53;;
20084;SDS011;10202;48.474;9.138;2024-03-07T07:25:31;48.33;;;22.80;;
20084;SDS011;10202;48.474;9.138;2024-03-07T07:28:00;48.07;;;23.03;;
20084;SDS011;10202;48.474;9.138;2024-03-07T07:30:30;49.37;;;22.87;;
20084;SDS011;10202;48.474;9.138;2024-03-07T07:32:58;47.90;;;22.13;;
20084;SDS011;10202;48.474;9.138;2024-03-07T07:35:26;47.93;;;23.43;;
20084;SDS011;10202;48.474;9.138;2024-03-07T07:37:52;49.07;;;22.93;;
20084;SDS011;10202;48.474;9.138;2024-03-07T07:40:20;48.43;;;23.53;;
20084;SDS011;10202;48.474;9.138;2024-03-07T07:42:51;48.63;;;22.90;;
20084;SDS011;10202;48.474;9.138;2024-03-07T07:45:20;50.30;;;22.97;;
20084;SDS011;10202;48.474;9.138;2024-03-07T07:47:50;49.57;;;23.23;;
20084;SDS011;10202;48.474;9.138;2024-03-07T07:50:20;48.27;;;23.30;;
20084;SDS011;10202;48.474;9.138;2024-03-07T07:52:50;50.57;;;21.60;;
20084;SDS011;10202;48.474;9.138;2024-03-07T07:55:23;50.23;;;23.87;;
20084;SDS011;10202;48.474;9.138;2024-03-07T08:00:27;47.40;;;22.23;;
20084;SDS011;10202;48.474;9.138;2024-03-07T08:02:55;49.13;;;23.70;;
20084;SDS011;10202;48.474;9.138;2024-03-07T08:05:32;47.63;;;22.27;;
20084;SDS011;10202;48.474;9.138;2024-03-07T08:08:06;47.40;;;22.07;;
20084;SDS011;10202;48.474;9.138;2024-03-07T08:10:34;47.17;;;22.27;;
20084;SDS011;10202;48.474;9.138;2024-03-07T08:13:03;45.70;;;21.17;;
20084;SDS011;10202;48.474;9.138;2024-03-07T08:15:33;51.03;;;24.87;;
20084;SDS011;10202;48.474;9.138;2024-03-07T08:17:59;42.97;;;21.37;;
20084;SDS011;10202;48.474;9.138;2024-03-07T08:20:28;47.37;;;23.00;;
20084;SDS011;10202;48.474;9.138;2024-03-07T08:22:54;46.70;;;22.90;;
20084;SDS011;10202;48.474;9.138;2024-03-07T08:25:24;46.90;;;21.67;;
20084;SDS011;10202;48.474;9.138;2024-03-07T08:27:54;42.60;;;22.10;;
20084;SDS011;10202;48.474;9.138;2024-03-07T08:30:21;44.10;;;21.73;;
20084;SDS011;10202;48.474;9.138;2024-03-07T08:32:51;47.00;;;21.20;;
20084;SDS011;10202;48.474;9.138;2024-03-07T08:35:19;43.63;;;20.90;;
20084;SDS011;10202;48.474;9.138;2024-03-07T08:37:46;53.07;;;23.53;;
20084;SDS011;10202;48.474;9.138;2024-03-07T08:40:21;46.43;;;21.90;;
20084;SDS011;10202;48.474;9.138;2024-03-07T08:42:52;44.03;;;22.03;;
20084;SDS011;10202;48.474;9.138;2024-03-07T08:45:21;43.50;;;22.27;;
20084;SDS011;10202;48.474;9.138;2024-03-07T08:47:48;45.97;;;23.20;;
20084;SDS011;10202;48.474;9.138;2024-03-07T08:50:17;46.57;;;23.63;;
20084;SDS011;10202;48.474;9.138;2024-03-07T08:52:47;54.17;;;23.00;;
20084;SDS011;10202;48.474;9.138;2024-03-07T08:55:24;44.13;;;22.10;;
20084;SDS011;10202;48.474;9.138;2024-03-07T08:57:53;51.47;;;22.77;;
20084;SDS011;10202;48.474;9.138;2024-03-07T09:00:19;49.17;;;22.80;;
20084;SDS011;10202;48.474;9.138;2024-03-07T09:02:52;52.93;;;23.37;;
20084;SDS011;10202;48.474;9.138;2024-03-07T09:05:24;47.63;;;22.60;;
20084;SDS011;10202;48.474;9.138;2024-03-07T09:07:53;48.50;;;22.13;;
20084;SDS011;10202;48.474;9.138;2024-03-07T09:10:29;49.10;;;22.70;;
20084;SDS011;10202;48.474;9.138;2024-03-07T09:12:58;49.03;;;23.60;;
20084;SDS011;10202;48.474;9.138;2024-03-07T09:15:23;41.00;;;20.70;;
20084;SDS011;10202;48.474;9.138;2024-03-07T09:17:55;49.43;;;23.40;;
20084;SDS011;10202;48.474;9.138;2024-03-07T09:20:23;49.27;;;23.63;;
20084;SDS011;10202;48.474;9.138;2024-03-07T09:22:52;55.00;;;23.60;;
20084;SDS011;10202;48.474;9.138;2024-03-07T09:25:19;53.53;;;23.27;;
20084;SDS011;10202;48.474;9.138;2024-03-07T09:27:45;55.75;;;24.00;;
20084;SDS011;10202;48.474;9.138;2024-03-07T09:30:11;53.10;;;24.80;;
20084;SDS011;10202;48.474;9.138;2024-03-07T09:32:46;57.53;;;25.90;;
20084;SDS011;10202;48.474;9.138;2024-03-07T09:35:11;55.77;;;24.93;;
20084;SDS011;10202;48.474;9.138;2024-03-07T09:37:41;50.87;;;23.33;;
20084;SDS011;10202;48.474;9.138;2024-03-07T09:40:11;52.90;;;24.83;;
20084;SDS011;10202;48.474;9.138;2024-03-07T09:42:43;56.00;;;25.20;;
20084;SDS011;10202;48.474;9.138;2024-03-07T09:45:23;56.07;;;25.37;;
20084;SDS011;10202;48.474;9.138;2024-03-07T09:47:59;55.63;;;25.10;;
20084;SDS011;10202;48.474;9.138;2024-03-07T09:50:32;58.70;;;25.73;;
20084;SDS011;10202;48.474;9.138;2024-03-07T09:52:58;54.53;;;25.73;;
20084;SDS011;10202;48.474;9.138;2024-03-07T09:55:28;55.37;;;25.17;;
20084;SDS011;10202;48.474;9.138;2024-03-07T09:57:54;58.40;;;25.00;;
20084;SDS011;10202;48.474;9.138;2024-03-07T10:00:21;71.45;;;26.85;;
20084;SDS011;10202;48.474;9.138;2024-03-07T10:03:10;60.38;;;26.52;;
20084;SDS011;10202;48.474;9.138;2024-03-07T10:05:41;59.70;;;26.15;;
20084;SDS011;10202;48.474;9.138;2024-03-07T10:08:09;57.85;;;26.48;;
20084;SDS011;10202;48.474;9.138;2024-03-07T10:10:40;60.47;;;25.70;;
20084;SDS011;10202;48.474;9.138;2024-03-07T10:13:07;56.42;;;25.17;;
20084;SDS011;10202;48.474;9.138;2024-03-07T10:15:37;57.42;;;24.98;;
20084;SDS011;10202;48.474;9.138;2024-03-07T10:18:08;57.55;;;25.60;;
20084;SDS011;10202;48.474;9.138;2024-03-07T10:20:39;56.13;;;26.27;;
20084;SDS011;10202;48.474;9.138;2024-03-07T10:23:05;59.40;;;26.95;;
20084;SDS011;10202;48.474;9.138;2024-03-07T10:25:34;57.60;;;24.95;;
20084;SDS011;10202;48.474;9.138;2024-03-07T10:28:00;64.00;;;27.13;;
20084;SDS011;10202;48.474;9.138;2024-03-07T10:30:29;58.08;;;25.90;;
20084;SDS011;10202;48.474;9.138;2024-03-07T10:32:55;57.22;;;25.98;;
20084;SDS011;10202;48.474;9.138;2024-03-07T10:35:24;58.78;;;25.60;;
20084;SDS011;10202;48.474;9.138;2024-03-07T10:37:51;58.92;;;25.88;;
20084;SDS011;10202;48.474;9.138;2024-03-07T10:40:21;55.97;;;25.55;;
20084;SDS011;10202;48.474;9.138;2024-03-07T10:42:48;57.20;;;25.13;;
20084;SDS011;10202;48.474;9.138;2024-03-07T10:45:20;51.80;;;24.92;;
20084;SDS011;10202;48.474;9.138;2024-03-07T10:47:53;58.80;;;25.40;;
20084;SDS011;10202;48.474;9.138;2024-03-07T10:50:28;50.88;;;25.58;;
20084;SDS011;10202;48.474;9.138;2024-03-07T10:59:28;46.55;;;22.90;;
20084;SDS011;10202;48.474;9.138;2024-03-07T11:01:57;47.97;;;22.55;;
20084;SDS011;10202;48.474;9.138;2024-03-07T11:04:27;47.50;;;23.25;;
20084;SDS011;10202;48.474;9.138;2024-03-07T11:06:54;51.47;;;24.65;;
20084;SDS011;10202;48.474;9.138;2024-03-07T11:09:21;43.20;;;21.92;;
20084;SDS011;10202;48.474;9.138;2024-03-07T11:11:54;47.65;;;22.08;;
20084;SDS011;10202;48.474;9.138;2024-03-07T11:14:25;45.53;;;22.60;;
20084;SDS011;10202;48.474;9.138;2024-03-07T11:16:59;44.63;;;22.60;;
20084;SDS011;10202;48.474;9.138;2024-03-07T11:19:29;42.70;;;21.05;;
20084;SDS011;10202;48.474;9.138;2024-03-07T11:21:57;46.70;;;22.90;;
20084;SDS011;10202;48.474;9.138;2024-03-07T11:24:35;42.20;;;20.55;;
20084;SDS011;10202;48.474;9.138;2024-03-07T11:27:03;44.30;;;20.88;;
20084;SDS011;10202;48.474;9.138;2024-03-07T11:32:13;43.67;;;21.60;;
20084;SDS011;10202;48.474;9.138;2024-03-07T11:34:42;42.60;;;22.23;;
20084;SDS011;10202;48.474;9.138;2024-03-07T11:37:36;50.58;;;23.52;;
20084;SDS011;10202;48.474;9.138;2024-03-07T11:40:12;55.78;;;24.10;;
20084;SDS011;10202;48.474;9.138;2024-03-07T11:42:50;43.85;;;20.02;;
20084;SDS011;10202;48.474;9.138;2024-03-07T11:45:21;40.83;;;20.45;;
20084;SDS011;10202;48.474;9.138;2024-03-07T11:47:52;43.50;;;20.20;;
20084;SDS011;10202;48.474;9.138;2024-03-07T11:50:32;40.97;;;20.40;;
20084;SDS011;10202;48.474;9.138;2024-03-07T11:53:05;41.75;;;19.52;;
20084;SDS011;10202;48.474;9.138;2024-03-07T11:55:40;40.97;;;20.83;;
20084;SDS011;10202;48.474;9.138;2024-03-07T11:58:19;47.88;;;24.10;;
20084;SDS011;10202;48.474;9.138;2024-03-07T12:00:46;39.30;;;19.23;;
20084;SDS011;10202;48.474;9.138;2024-03-07T12:03:17;38.60;;;20.63;;
20084;SDS011;10202;48.474;9.138;2024-03-07T12:05:50;40.70;;;20.65;;
20084;SDS011;10202;48.474;9.138;2024-03-07T12:08:17;42.47;;;20.83;;
20084;SDS011;10202;48.474;9.138;2024-03-07T12:10:48;46.60;;;23.52;;
20084;SDS011;10202;48.474;9.138;2024-03-07T12:13:18;42.50;;;21.60;;
20084;SDS011;10202;48.474;9.138;2024-03-07T12:15:44;40.28;;;20.13;;
20084;SDS011;10202;48.474;9.138;2024-03-07T12:18:10;41.85;;;19.58;;
20084;SDS011;10202;48.474;9.138;2024-03-07T12:20:39;43.80;;;20.10;;
20084;SDS011;10202;48.474;9.138;2024-03-07T12:23:06;35.63;;;18.58;;
20084;SDS011;10202;48.474;9.138;2024-03-07T12:25:37;32.95;;;17.88;;
20084;SDS011;10202;48.474;9.138;2024-03-07T12:28:11;36.90;;;18.85;;
20084;SDS011;10202;48.474;9.138;2024-03-07T12:33:17;43.92;;;21.55;;
20084;SDS011;10202;48.474;9.138;2024-03-07T12:35:46;35.95;;;19.65;;
20084;SDS011;10202;48.474;9.138;2024-03-07T12:38:15;39.53;;;20.00;;
20084;SDS011;10202;48.474;9.138;2024-03-07T12:40:41;38.17;;;18.80;;
20084;SDS011;10202;48.474;9.138;2024-03-07T12:45:59;37.83;;;18.73;;
20084;SDS011;10202;48.474;9.138;2024-03-07T12:48:29;40.20;;;19.17;;
20084;SDS011;10202;48.474;9.138;2024-03-07T12:51:01;36.97;;;17.25;;
20084;SDS011;10202;48.474;9.138;2024-03-07T12:53:27;47.88;;;22.38;;
20084;SDS011;10202;48.474;9.138;2024-03-07T12:55:56;49.13;;;21.15;;
20084;SDS011;10202;48.474;9.138;2024-03-07T12:58:22;41.70;;;21.17;;
20084;SDS011;10202;48.474;9.138;2024-03-07T13:00:57;43.85;;;20.48;;
20084;SDS011;10202;48.474;9.138;2024-03-07T13:03:23;39.60;;;20.38;;
20084;SDS011;10202;48.474;9.138;2024-03-07T13:05:55;39.22;;;19.33;;
20084;SDS011;10202;48.474;9.138;2024-03-07T13:08:28;37.50;;;18.55;;
20084;SDS011;10202;48.474;9.138;2024-03-07T13:10:57;44.67;;;19.90;;
20084;SDS011;10202;48.474;9.138;2024-03-07T13:13:24;36.90;;;18.40;;
20084;SDS011;10202;48.474;9.138;2024-03-07T13:15:52;41.92;;;20.90;;
20084;SDS011;10202;48.474;9.138;2024-03-07T13:18:19;44.45;;;20.45;;
20084;SDS011;10202;48.474;9.138;2024-03-07T13:20:45;37.78;;;18.77;;
20084;SDS011;10202;48.474;9.138;2024-03-07T13:23:15;38.85;;;19.20;;
20084;SDS011;10202;48.474;9.138;2024-03-07T13:25:43;40.97;;;19.75;;
20084;SDS011;10202;48.474;9.138;2024-03-07T13:28:13;39.25;;;19.00;;
20084;SDS011;10202;48.474;9.138;2024-03-07T13:30:47;39.35;;;19.00;;
20084;SDS011;10202;48.474;9.138;2024-03-07T13:33:14;42.67;;;19.75;;
20084;SDS011;10202;48.474;9.138;2024-03-07T13:35:40;40.75;;;19.85;;
20084;SDS011;10202;48.474;9.138;2024-03-07T13:38:06;40.45;;;19.38;;
20084;SDS011;10202;48.474;9.138;2024-03-07T13:40:35;39.95;;;19.67;;
20084;SDS011;10202;48.474;9.138;2024-03-07T13:43:09;39.63;;;20.38;;
20084;SDS011;10202;48.474;9.138;2024-03-07T13:45:37;42.47;;;20.50;;
20084;SDS011;10202;48.474;9.138;2024-03-07T13:48:08;42.90;;;20.90;;
20084;SDS011;10202;48.474;9.138;2024-03-07T13:50:37;40.40;;;20.77;;
20084;SDS011;10202;48.474;9.138;2024-03-07T13:53:15;39.65;;;20.25;;
20084;SDS011;10202;48.474;9.138;2024-03-07T13:58:43;40.38;;;20.20;;
20084;SDS011;10202;48.474;9.138;2024-03-07T14:01:44;43.13;;;21.52;;
20084;SDS011;10202;48.474;9.138;2024-03-07T14:31:05;44.75;;;21.88;;
20084;SDS011;10202;48.474;9.138;2024-03-07T14:33:52;47.35;;;22.08;;
20084;SDS011;10202;48.474;9.138;2024-03-07T14:36:37;43.97;;;22.15;;
20084;SDS011;10202;48.474;9.138;2024-03-07T14:39:07;43.30;;;20.70;;
20084;SDS011;10202;48.474;9.138;2024-03-07T14:44:24;44.45;;;21.70;;
20084;SDS011;10202;48.474;9.138;2024-03-07T14:46:53;40.75;;;20.30;;
20084;SDS011;10202;48.474;9.138;2024-03-07T14:49:25;41.63;;;20.80;;
20084;SDS011;10202;48.474;9.138;2024-03-07T14:51:51;41.08;;;20.58;;
20084;SDS011;10202;48.474;9.138;2024-03-07T14:54:22;38.55;;;19.65;;
20084;SDS011;10202;48.474;9.138;2024-03-07T14:56:50;47.80;;;21.27;;
20084;SDS011;10202;48.474;9.138;2024-03-07T14:59:18;40.20;;;20.05;;
20084;SDS011;10202;48.474;9.138;2024-03-07T15:01:46;38.63;;;20.27;;
20084;SDS011;10202;48.474;9.138;2024-03-07T15:04:12;41.47;;;19.92;;
20084;SDS011;10202;48.474;9.138;2024-03-07T15:06:39;40.55;;;19.48;;
20084;SDS011;10202;48.474;9.138;2024-03-07T15:09:05;41.70;;;20.52;;
20084;SDS011;10202;48.474;9.138;2024-03-07T15:11:40;40.92;;;20.33;;
20084;SDS011;10202;48.474;9.138;2024-03-07T15:14:06;37.45;;;19.67;;
20084;SDS011;10202;48.474;9.138;2024-03-07T15:16:38;41.83;;;19.90;;
20084;SDS011;10202;48.474;9.138;2024-03-07T15:19:09;43.20;;;21.00;;